sensor_id;sensor_type;location;lat;lon;timestamp;temperature;humidity
23267;DHT22;11802;53.160;8.214;2023-04-03T00:02:05;1.10;99.90
23267;DHT22;11802;53.160;8.214;2023-04-03T00:04:31;1.20;99.90
23267;DHT22;11802;53.160;8.214;2023-04-03T00:06:56;1.10;99.90
23267;DHT22;11802;53.160;8.214;2023-04-03T00:09:22;1.00;99.90
23267;DHT22;11802;53.160;8.214;2023-04-03T00:11:47;1.00;99.90
23267;DHT22;11802;53.160;8.214;2023-04-03T00:14:13;1.00;99.90
23267;DHT22;11802;53.160;8.214;2023-04-03T00:16:38;1.00;99.90
23267;DHT22;11802;53.160;8.214;2023-04-03T00:19:04;1.00;99.90
23267;DHT22;11802;53.160;8.214;2023-04-03T00:21:30;0.90;99.90
23267;DHT22;11802;53.160;8.214;2023-04-03T00:23:56;0.90;99.90
23267;DHT22;11802;53.160;8.214;2023-04-03T00:26:22;0.90;99.90
23267;DHT22;11802;53.160;8.214;2023-04-03T00:28:47;1.00;99.90
23267;DHT22;11802;53.160;8.214;2023-04-03T00:31:15;0.90;99.90
23267;DHT22;11802;53.160;8.214;2023-04-03T00:33:41;0.90;99.90
23267;DHT22;11802;53.160;8.214;2023-04-03T00:36:08;0.80;99.90
23267;DHT22;11802;53.160;8.214;2023-04-03T00:38:34;0.80;99.90
23267;DHT22;11802;53.160;8.214;2023-04-03T00:41:00;0.80;99.90
23267;DHT22;11802;53.160;8.214;2023-04-03T00:43:26;0.80;99.90
23267;DHT22;11802;53.160;8.214;2023-04-03T00:45:54;0.70;99.90
23267;DHT22;11802;53.160;8.214;2023-04-03T00:48:26;0.70;99.90
23267;DHT22;11802;53.160;8.214;2023-04-03T00:50:53;0.70;99.90
23267;DHT22;11802;53.160;8.214;2023-04-03T00:53:23;0.60;99.90
23267;DHT22;11802;53.160;8.214;2023-04-03T00:55:51;0.60;99.90
23267;DHT22;11802;53.160;8.214;2023-04-03T00:58:20;0.60;99.90
23267;DHT22;11802;53.160;8.214;2023-04-03T01:00:50;0.50;99.90
23267;DHT22;11802;53.160;8.214;2023-04-03T01:03:21;0.50;99.90
23267;DHT22;11802;53.160;8.214;2023-04-03T01:05:47;0.40;99.90
23267;DHT22;11802;53.160;8.214;2023-04-03T01:08:12;0.30;99.90
23267;DHT22;11802;53.160;8.214;2023-04-03T01:10:38;0.30;99.90
23267;DHT22;11802;53.160;8.214;2023-04-03T01:13:18;0.20;99.90
23267;DHT22;11802;53.160;8.214;2023-04-03T01:15:44;0.30;99.90
23267;DHT22;11802;53.160;8.214;2023-04-03T01:18:10;0.30;99.90
23267;DHT22;11802;53.160;8.214;2023-04-03T01:20:49;0.30;99.90
23267;DHT22;11802;53.160;8.214;2023-04-03T01:23:33;0.30;99.90
23267;DHT22;11802;53.160;8.214;2023-04-03T01:26:03;0.30;99.90
23267;DHT22;11802;53.160;8.214;2023-04-03T01:28:34;0.30;99.90
23267;DHT22;11802;53.160;8.214;2023-04-03T01:31:23;0.30;99.90
23267;DHT22;11802;53.160;8.214;2023-04-03T01:33:50;0.40;99.90
23267;DHT22;11802;53.160;8.214;2023-04-03T01:36:22;0.40;99.90
23267;DHT22;11802;53.160;8.214;2023-04-03T01:38:48;0.40;99.90
23267;DHT22;11802;53.160;8.214;2023-04-03T01:41:14;0.40;99.90
23267;DHT22;11802;53.160;8.214;2023-04-03T01:43:40;0.40;99.90
23267;DHT22;11802;53.160;8.214;2023-04-03T01:46:06;0.50;99.90
23267;DHT22;11802;53.160;8.214;2023-04-03T01:48:33;0.50;99.90
23267;DHT22;11802;53.160;8.214;2023-04-03T01:50:58;0.50;99.90
23267;DHT22;11802;53.160;8.214;2023-04-03T01:53:24;0.40;99.90
23267;DHT22;11802;53.160;8.214;2023-04-03T01:55:49;0.40;99.90
23267;DHT22;11802;53.160;8.214;2023-04-03T01:58:15;0.40;99.90
23267;DHT22;11802;53.160;8.214;2023-04-03T02:00:41;0.30;99.90
23267;DHT22;11802;53.160;8.214;2023-04-03T02:03:06;0.40;99.90
23267;DHT22;11802;53.160;8.214;2023-04-03T02:05:32;0.30;99.90
23267;DHT22;11802;53.160;8.214;2023-04-03T02:07:58;0.30;99.90
23267;DHT22;11802;53.160;8.214;2023-04-03T02:10:24;0.30;99.90
23267;DHT22;11802;53.160;8.214;2023-04-03T02:12:49;0.30;99.90
23267;DHT22;11802;53.160;8.214;2023-04-03T02:15:15;0.30;99.90
23267;DHT22;11802;53.160;8.214;2023-04-03T02:17:40;0.30;99.90
23267;DHT22;11802;53.160;8.214;2023-04-03T02:20:06;0.30;99.90
23267;DHT22;11802;53.160;8.214;2023-04-03T02:22:32;0.20;99.90
23267;DHT22;11802;53.160;8.214;2023-04-03T02:24:57;0.20;99.90
23267;DHT22;11802;53.160;8.214;2023-04-03T02:27:23;0.10;99.90
23267;DHT22;11802;53.160;8.214;2023-04-03T02:29:49;0.20;99.90
23267;DHT22;11802;53.160;8.214;2023-04-03T02:32:14;0.10;99.90
23267;DHT22;11802;53.160;8.214;2023-04-03T02:34:40;0.10;99.90
23267;DHT22;11802;53.160;8.214;2023-04-03T02:37:07;0.10;99.90
23267;DHT22;11802;53.160;8.214;2023-04-03T02:39:34;0.10;99.90
23267;DHT22;11802;53.160;8.214;2023-04-03T02:41:59;0.10;99.90
23267;DHT22;11802;53.160;8.214;2023-04-03T02:44:25;0.00;99.90
23267;DHT22;11802;53.160;8.214;2023-04-03T02:46:51;0.00;99.90
23267;DHT22;11802;53.160;8.214;2023-04-03T02:49:16;0.00;99.90
23267;DHT22;11802;53.160;8.214;2023-04-03T02:51:42;0.00;99.90
23267;DHT22;11802;53.160;8.214;2023-04-03T02:54:08;0.00;99.90
23267;DHT22;11802;53.160;8.214;2023-04-03T02:56:33;0.00;99.90
23267;DHT22;11802;53.160;8.214;2023-04-03T02:58:59;-0.10;99.90
23267;DHT22;11802;53.160;8.214;2023-04-03T03:01:25;-0.10;99.90
23267;DHT22;11802;53.160;8.214;2023-04-03T03:03:52;-0.10;99.90
23267;DHT22;11802;53.160;8.214;2023-04-03T03:06:17;-0.10;99.90
23267;DHT22;11802;53.160;8.214;2023-04-03T03:08:43;-0.10;99.90
23267;DHT22;11802;53.160;8.214;2023-04-03T03:11:10;-0.20;99.90
23267;DHT22;11802;53.160;8.214;2023-04-03T03:13:36;-0.20;99.90
23267;DHT22;11802;53.160;8.214;2023-04-03T03:16:02;-0.20;99.90
23267;DHT22;11802;53.160;8.214;2023-04-03T03:18:28;-0.20;99.90
23267;DHT22;11802;53.160;8.214;2023-04-03T03:20:55;-0.20;99.90
23267;DHT22;11802;53.160;8.214;2023-04-03T03:23:22;-0.20;99.90
23267;DHT22;11802;53.160;8.214;2023-04-03T03:25:48;-0.30;99.90
23267;DHT22;11802;53.160;8.214;2023-04-03T03:28:14;-0.30;99.90
23267;DHT22;11802;53.160;8.214;2023-04-03T03:30:40;-0.30;99.90
23267;DHT22;11802;53.160;8.214;2023-04-03T03:33:05;-0.30;99.90
23267;DHT22;11802;53.160;8.214;2023-04-03T03:35:31;-0.30;99.90
23267;DHT22;11802;53.160;8.214;2023-04-03T03:37:56;-0.40;99.90
23267;DHT22;11802;53.160;8.214;2023-04-03T03:40:22;-0.40;99.90
23267;DHT22;11802;53.160;8.214;2023-04-03T03:42:47;-0.30;99.90
23267;DHT22;11802;53.160;8.214;2023-04-03T03:45:13;-0.40;99.90
23267;DHT22;11802;53.160;8.214;2023-04-03T03:47:39;-0.40;99.90
23267;DHT22;11802;53.160;8.214;2023-04-03T03:50:06;-0.40;99.90
23267;DHT22;11802;53.160;8.214;2023-04-03T03:52:31;-0.40;99.90
23267;DHT22;11802;53.160;8.214;2023-04-03T03:54:57;-0.40;99.90
23267;DHT22;11802;53.160;8.214;2023-04-03T03:57:22;-0.50;99.90
23267;DHT22;11802;53.160;8.214;2023-04-03T03:59:48;-0.40;99.90
23267;DHT22;11802;53.160;8.214;2023-04-03T04:02:14;-0.50;99.90
23267;DHT22;11802;53.160;8.214;2023-04-03T04:04:40;-0.50;99.90
23267;DHT22;11802;53.160;8.214;2023-04-03T04:07:06;-0.50;99.90
23267;DHT22;11802;53.160;8.214;2023-04-03T04:09:31;-0.50;99.90
23267;DHT22;11802;53.160;8.214;2023-04-03T04:11:57;-0.40;99.90
23267;DHT22;11802;53.160;8.214;2023-04-03T04:14:22;-0.40;99.90
23267;DHT22;11802;53.160;8.214;2023-04-03T04:16:48;-0.40;99.90
23267;DHT22;11802;53.160;8.214;2023-04-03T04:19:14;-0.40;99.90
23267;DHT22;11802;53.160;8.214;2023-04-03T04:21:40;-0.40;99.90
23267;DHT22;11802;53.160;8.214;2023-04-03T04:24:07;-0.40;99.90
23267;DHT22;11802;53.160;8.214;2023-04-03T04:26:33;-0.40;99.90
23267;DHT22;11802;53.160;8.214;2023-04-03T04:28:58;-0.40;99.90
23267;DHT22;11802;53.160;8.214;2023-04-03T04:31:24;-0.50;99.90
23267;DHT22;11802;53.160;8.214;2023-04-03T04:33:49;-0.50;99.90
23267;DHT22;11802;53.160;8.214;2023-04-03T04:36:15;-0.50;99.90
23267;DHT22;11802;53.160;8.214;2023-04-03T04:38:41;-0.50;99.90
23267;DHT22;11802;53.160;8.214;2023-04-03T04:41:07;-0.50;99.90
23267;DHT22;11802;53.160;8.214;2023-04-03T04:43:32;-0.50;99.90
23267;DHT22;11802;53.160;8.214;2023-04-03T04:46:09;-0.50;99.90
23267;DHT22;11802;53.160;8.214;2023-04-03T04:48:36;-0.50;99.90
23267;DHT22;11802;53.160;8.214;2023-04-03T04:51:02;-0.50;99.90
23267;DHT22;11802;53.160;8.214;2023-04-03T04:53:29;-0.50;99.90
23267;DHT22;11802;53.160;8.214;2023-04-03T04:55:55;-0.60;99.90
23267;DHT22;11802;53.160;8.214;2023-04-03T04:58:20;-0.60;99.90
23267;DHT22;11802;53.160;8.214;2023-04-03T05:00:46;-0.60;99.90
23267;DHT22;11802;53.160;8.214;2023-04-03T05:03:12;-0.60;99.90
23267;DHT22;11802;53.160;8.214;2023-04-03T05:05:38;-0.60;99.90
23267;DHT22;11802;53.160;8.214;2023-04-03T05:08:04;-0.50;99.90
23267;DHT22;11802;53.160;8.214;2023-04-03T05:10:30;-0.40;99.90
23267;DHT22;11802;53.160;8.214;2023-04-03T05:12:56;-0.40;99.90
23267;DHT22;11802;53.160;8.214;2023-04-03T05:15:22;-0.30;99.90
23267;DHT22;11802;53.160;8.214;2023-04-03T05:17:47;-0.30;99.90
23267;DHT22;11802;53.160;8.214;2023-04-03T05:20:13;-0.10;99.90
23267;DHT22;11802;53.160;8.214;2023-04-03T05:22:39;-0.10;99.90
23267;DHT22;11802;53.160;8.214;2023-04-03T05:25:05;0.10;99.90
23267;DHT22;11802;53.160;8.214;2023-04-03T05:27:31;0.30;99.90
23267;DHT22;11802;53.160;8.214;2023-04-03T05:29:56;0.60;99.90
23267;DHT22;11802;53.160;8.214;2023-04-03T05:32:23;0.70;99.90
23267;DHT22;11802;53.160;8.214;2023-04-03T05:34:48;1.20;99.90
23267;DHT22;11802;53.160;8.214;2023-04-03T05:37:14;1.50;99.90
23267;DHT22;11802;53.160;8.214;2023-04-03T05:39:39;1.80;99.90
23267;DHT22;11802;53.160;8.214;2023-04-03T05:42:06;2.20;99.90
23267;DHT22;11802;53.160;8.214;2023-04-03T05:44:32;2.50;81.20
23267;DHT22;11802;53.160;8.214;2023-04-03T05:46:58;2.60;17.50
23267;DHT22;11802;53.160;8.214;2023-04-03T05:49:24;2.40;1.00
23267;DHT22;11802;53.160;8.214;2023-04-03T05:51:49;2.20;16.50
23267;DHT22;11802;53.160;8.214;2023-04-03T05:54:23;2.10;42.30
23267;DHT22;11802;53.160;8.214;2023-04-03T05:56:49;2.20;55.10
23267;DHT22;11802;53.160;8.214;2023-04-03T05:59:16;2.60;97.50
23267;DHT22;11802;53.160;8.214;2023-04-03T06:01:42;3.40;16.00
23267;DHT22;11802;53.160;8.214;2023-04-03T06:04:07;3.90;1.00
23267;DHT22;11802;53.160;8.214;2023-04-03T06:06:54;4.30;1.00
23267;DHT22;11802;53.160;8.214;2023-04-03T06:09:23;4.50;1.00
23267;DHT22;11802;53.160;8.214;2023-04-03T06:11:49;4.70;1.00
23267;DHT22;11802;53.160;8.214;2023-04-03T06:14:15;4.60;1.00
23267;DHT22;11802;53.160;8.214;2023-04-03T06:16:41;4.60;1.00
23267;DHT22;11802;53.160;8.214;2023-04-03T06:19:10;4.70;1.00
23267;DHT22;11802;53.160;8.214;2023-04-03T06:21:37;4.90;1.00
23267;DHT22;11802;53.160;8.214;2023-04-03T06:24:06;5.00;1.00
23267;DHT22;11802;53.160;8.214;2023-04-03T06:26:32;5.60;1.00
23267;DHT22;11802;53.160;8.214;2023-04-03T06:28:58;6.60;1.00
23267;DHT22;11802;53.160;8.214;2023-04-03T06:31:24;7.80;38.40
23267;DHT22;11802;53.160;8.214;2023-04-03T06:33:50;8.70;1.00
23267;DHT22;11802;53.160;8.214;2023-04-03T06:36:18;9.80;10.30
23267;DHT22;11802;53.160;8.214;2023-04-03T06:38:48;10.30;1.00
23267;DHT22;11802;53.160;8.214;2023-04-03T06:41:14;10.70;99.90
23267;DHT22;11802;53.160;8.214;2023-04-03T06:43:43;10.80;99.90
23267;DHT22;11802;53.160;8.214;2023-04-03T06:46:20;11.20;38.40
23267;DHT22;11802;53.160;8.214;2023-04-03T06:48:47;11.80;1.00
23267;DHT22;11802;53.160;8.214;2023-04-03T06:51:27;12.50;1.00
23267;DHT22;11802;53.160;8.214;2023-04-03T06:53:55;13.00;1.00
23267;DHT22;11802;53.160;8.214;2023-04-03T06:56:22;13.50;1.00
23267;DHT22;11802;53.160;8.214;2023-04-03T06:58:48;13.30;1.00
23267;DHT22;11802;53.160;8.214;2023-04-03T07:01:16;13.10;1.00
23267;DHT22;11802;53.160;8.214;2023-04-03T07:03:42;13.50;1.00
23267;DHT22;11802;53.160;8.214;2023-04-03T07:06:11;12.60;1.00
23267;DHT22;11802;53.160;8.214;2023-04-03T07:08:36;12.80;1.00
23267;DHT22;11802;53.160;8.214;2023-04-03T07:11:03;13.00;1.00
23267;DHT22;11802;53.160;8.214;2023-04-03T07:13:28;12.60;1.00
23267;DHT22;11802;53.160;8.214;2023-04-03T07:15:54;12.80;1.00
23267;DHT22;11802;53.160;8.214;2023-04-03T07:18:20;12.60;1.00
23267;DHT22;11802;53.160;8.214;2023-04-03T07:20:46;12.50;1.00
23267;DHT22;11802;53.160;8.214;2023-04-03T07:23:12;12.80;1.00
23267;DHT22;11802;53.160;8.214;2023-04-03T07:25:43;13.40;1.00
23267;DHT22;11802;53.160;8.214;2023-04-03T07:28:09;13.80;1.00
23267;DHT22;11802;53.160;8.214;2023-04-03T07:30:34;14.40;99.90
23267;DHT22;11802;53.160;8.214;2023-04-03T07:33:01;14.40;99.90
23267;DHT22;11802;53.160;8.214;2023-04-03T07:35:26;14.90;99.90
23267;DHT22;11802;53.160;8.214;2023-04-03T07:37:52;13.40;99.90
23267;DHT22;11802;53.160;8.214;2023-04-03T07:40:18;13.80;99.90
23267;DHT22;11802;53.160;8.214;2023-04-03T07:42:44;14.20;99.90
23267;DHT22;11802;53.160;8.214;2023-04-03T07:45:10;14.50;99.90
23267;DHT22;11802;53.160;8.214;2023-04-03T07:47:35;13.40;99.90
23267;DHT22;11802;53.160;8.214;2023-04-03T07:50:01;14.10;99.90
23267;DHT22;11802;53.160;8.214;2023-04-03T07:52:26;14.10;99.90
23267;DHT22;11802;53.160;8.214;2023-04-03T07:54:52;13.90;99.90
23267;DHT22;11802;53.160;8.214;2023-04-03T07:57:17;13.90;99.90
23267;DHT22;11802;53.160;8.214;2023-04-03T07:59:43;14.80;99.90
23267;DHT22;11802;53.160;8.214;2023-04-03T08:02:12;14.90;99.90
23267;DHT22;11802;53.160;8.214;2023-04-03T08:04:37;15.00;99.90
23267;DHT22;11802;53.160;8.214;2023-04-03T08:07:03;14.30;99.90
23267;DHT22;11802;53.160;8.214;2023-04-03T08:09:29;14.00;99.90
23267;DHT22;11802;53.160;8.214;2023-04-03T08:11:55;14.40;99.90
23267;DHT22;11802;53.160;8.214;2023-04-03T08:14:21;14.20;99.90
23267;DHT22;11802;53.160;8.214;2023-04-03T08:16:47;12.50;99.90
23267;DHT22;11802;53.160;8.214;2023-04-03T08:19:14;13.20;99.90
23267;DHT22;11802;53.160;8.214;2023-04-03T08:21:41;13.40;99.90
23267;DHT22;11802;53.160;8.214;2023-04-03T08:24:07;13.70;99.90
23267;DHT22;11802;53.160;8.214;2023-04-03T08:26:33;13.80;99.90
23267;DHT22;11802;53.160;8.214;2023-04-03T08:28:59;13.60;99.90
23267;DHT22;11802;53.160;8.214;2023-04-03T08:31:25;13.20;99.90
23267;DHT22;11802;53.160;8.214;2023-04-03T08:33:50;13.40;99.90
23267;DHT22;11802;53.160;8.214;2023-04-03T08:36:24;12.60;99.90
23267;DHT22;11802;53.160;8.214;2023-04-03T08:38:51;12.90;99.90
23267;DHT22;11802;53.160;8.214;2023-04-03T08:49:43;13.60;99.90
23267;DHT22;11802;53.160;8.214;2023-04-03T08:52:17;14.10;99.90
23267;DHT22;11802;53.160;8.214;2023-04-03T08:54:56;13.70;99.90
23267;DHT22;11802;53.160;8.214;2023-04-03T08:57:42;14.40;99.90
23267;DHT22;11802;53.160;8.214;2023-04-03T09:00:19;14.40;99.90
23267;DHT22;11802;53.160;8.214;2023-04-03T09:02:53;14.00;99.90
23267;DHT22;11802;53.160;8.214;2023-04-03T09:05:40;13.80;99.90
23267;DHT22;11802;53.160;8.214;2023-04-03T09:10:40;13.70;99.90
23267;DHT22;11802;53.160;8.214;2023-04-03T09:13:22;13.00;99.90
23267;DHT22;11802;53.160;8.214;2023-04-03T09:15:50;13.60;99.90
23267;DHT22;11802;53.160;8.214;2023-04-03T09:18:21;13.90;99.90
23267;DHT22;11802;53.160;8.214;2023-04-03T09:23:58;13.50;99.90
23267;DHT22;11802;53.160;8.214;2023-04-03T09:26:29;14.00;99.90
23267;DHT22;11802;53.160;8.214;2023-04-03T09:28:58;14.20;99.90
23267;DHT22;11802;53.160;8.214;2023-04-03T09:31:27;14.70;99.90
23267;DHT22;11802;53.160;8.214;2023-04-03T09:33:58;14.50;99.90
23267;DHT22;11802;53.160;8.214;2023-04-03T09:36:53;13.50;99.90
23267;DHT22;11802;53.160;8.214;2023-04-03T09:39:22;13.90;99.90
23267;DHT22;11802;53.160;8.214;2023-04-03T09:42:02;14.30;99.90
23267;DHT22;11802;53.160;8.214;2023-04-03T09:44:38;14.40;99.90
23267;DHT22;11802;53.160;8.214;2023-04-03T09:47:23;14.20;99.90
23267;DHT22;11802;53.160;8.214;2023-04-03T09:49:49;13.80;99.90
23267;DHT22;11802;53.160;8.214;2023-04-03T09:52:26;13.80;99.90
23267;DHT22;11802;53.160;8.214;2023-04-03T09:54:52;14.10;99.90
23267;DHT22;11802;53.160;8.214;2023-04-03T09:57:17;14.80;99.90
23267;DHT22;11802;53.160;8.214;2023-04-03T09:59:47;14.90;99.90
23267;DHT22;11802;53.160;8.214;2023-04-03T10:02:34;14.60;99.90
23267;DHT22;11802;53.160;8.214;2023-04-03T10:05:00;13.30;99.90
23267;DHT22;11802;53.160;8.214;2023-04-03T10:07:35;13.50;99.90
23267;DHT22;11802;53.160;8.214;2023-04-03T10:10:22;13.60;99.90
23267;DHT22;11802;53.160;8.214;2023-04-03T10:13:21;13.20;99.90
23267;DHT22;11802;53.160;8.214;2023-04-03T10:18:43;12.20;99.90
23267;DHT22;11802;53.160;8.214;2023-04-03T10:24:03;12.70;99.90
23267;DHT22;11802;53.160;8.214;2023-04-03T10:29:40;12.10;99.90
23267;DHT22;11802;53.160;8.214;2023-04-03T10:32:17;11.70;99.90
23267;DHT22;11802;53.160;8.214;2023-04-03T10:35:10;12.00;99.90
23267;DHT22;11802;53.160;8.214;2023-04-03T10:43:33;12.50;99.90
23267;DHT22;11802;53.160;8.214;2023-04-03T10:46:15;12.60;99.90
23267;DHT22;11802;53.160;8.214;2023-04-03T10:48:56;12.50;99.90
23267;DHT22;11802;53.160;8.214;2023-04-03T10:51:33;12.20;99.90
23267;DHT22;11802;53.160;8.214;2023-04-03T10:56:39;12.10;99.90
23267;DHT22;11802;53.160;8.214;2023-04-03T10:59:24;12.10;99.90
23267;DHT22;11802;53.160;8.214;2023-04-03T11:01:55;12.30;99.90
23267;DHT22;11802;53.160;8.214;2023-04-03T11:04:23;13.10;99.90
23267;DHT22;11802;53.160;8.214;2023-04-03T11:07:00;13.30;99.90
23267;DHT22;11802;53.160;8.214;2023-04-03T11:09:34;13.70;99.90
23267;DHT22;11802;53.160;8.214;2023-04-03T11:12:27;13.30;99.90
23267;DHT22;11802;53.160;8.214;2023-04-03T11:14:56;13.00;99.90
23267;DHT22;11802;53.160;8.214;2023-04-03T11:17:31;13.20;99.90
23267;DHT22;11802;53.160;8.214;2023-04-03T11:22:58;12.70;99.90
23267;DHT22;11802;53.160;8.214;2023-04-03T11:25:29;12.10;99.90
23267;DHT22;11802;53.160;8.214;2023-04-03T11:28:03;11.40;99.90
23267;DHT22;11802;53.160;8.214;2023-04-03T11:36:18;11.20;99.90
23267;DHT22;11802;53.160;8.214;2023-04-03T11:38:46;11.20;99.90
23267;DHT22;11802;53.160;8.214;2023-04-03T11:41:13;11.20;99.90
23267;DHT22;11802;53.160;8.214;2023-04-03T11:44:03;11.50;99.90
23267;DHT22;11802;53.160;8.214;2023-04-03T11:46:55;11.20;99.90
23267;DHT22;11802;53.160;8.214;2023-04-03T12:05:50;10.90;99.90
23267;DHT22;11802;53.160;8.214;2023-04-03T12:08:30;11.00;99.90
23267;DHT22;11802;53.160;8.214;2023-04-03T12:16:05;11.20;99.90
23267;DHT22;11802;53.160;8.214;2023-04-03T12:20:58;10.80;99.90
23267;DHT22;11802;53.160;8.214;2023-04-03T12:23:34;11.00;99.90
23267;DHT22;11802;53.160;8.214;2023-04-03T12:26:05;10.90;99.90
23267;DHT22;11802;53.160;8.214;2023-04-03T12:28:44;10.80;99.90
23267;DHT22;11802;53.160;8.214;2023-04-03T12:31:12;10.50;99.90
23267;DHT22;11802;53.160;8.214;2023-04-03T12:34:09;10.70;99.90
23267;DHT22;11802;53.160;8.214;2023-04-03T12:39:45;10.90;99.90
23267;DHT22;11802;53.160;8.214;2023-04-03T12:42:37;11.10;99.90
23267;DHT22;11802;53.160;8.214;2023-04-03T12:45:25;11.00;99.90
23267;DHT22;11802;53.160;8.214;2023-04-03T12:47:53;10.70;99.90
23267;DHT22;11802;53.160;8.214;2023-04-03T12:50:23;10.60;99.90
23267;DHT22;11802;53.160;8.214;2023-04-03T12:52:56;10.80;99.90
23267;DHT22;11802;53.160;8.214;2023-04-03T12:55:23;10.70;99.90
23267;DHT22;11802;53.160;8.214;2023-04-03T12:57:49;10.90;99.90
23267;DHT22;11802;53.160;8.214;2023-04-03T13:00:35;10.80;99.90
23267;DHT22;11802;53.160;8.214;2023-04-03T13:03:02;11.00;99.90
23267;DHT22;11802;53.160;8.214;2023-04-03T13:05:29;11.10;99.90
23267;DHT22;11802;53.160;8.214;2023-04-03T13:08:00;10.90;99.90
23267;DHT22;11802;53.160;8.214;2023-04-03T13:10:27;10.60;99.90
23267;DHT22;11802;53.160;8.214;2023-04-03T13:12:55;10.60;99.90
23267;DHT22;11802;53.160;8.214;2023-04-03T13:15:28;10.70;99.90
23267;DHT22;11802;53.160;8.214;2023-04-03T13:17:54;10.80;99.90
23267;DHT22;11802;53.160;8.214;2023-04-03T13:20:30;10.90;99.90
23267;DHT22;11802;53.160;8.214;2023-04-03T13:23:00;10.80;99.90
23267;DHT22;11802;53.160;8.214;2023-04-03T13:25:29;10.50;99.90
23267;DHT22;11802;53.160;8.214;2023-04-03T13:27:58;10.40;99.90
23267;DHT22;11802;53.160;8.214;2023-04-03T13:30:29;10.20;99.90
23267;DHT22;11802;53.160;8.214;2023-04-03T13:32:57;10.00;99.90
23267;DHT22;11802;53.160;8.214;2023-04-03T13:35:33;10.00;99.90
23267;DHT22;11802;53.160;8.214;2023-04-03T13:38:21;10.30;99.90
23267;DHT22;11802;53.160;8.214;2023-04-03T13:40:50;10.40;99.90
23267;DHT22;11802;53.160;8.214;2023-04-03T13:43:25;10.60;99.90
23267;DHT22;11802;53.160;8.214;2023-04-03T13:48:25;10.70;99.90
23267;DHT22;11802;53.160;8.214;2023-04-03T13:53:52;10.50;99.90
23267;DHT22;11802;53.160;8.214;2023-04-03T13:56:39;10.30;99.90
23267;DHT22;11802;53.160;8.214;2023-04-03T14:01:46;10.00;99.90
23267;DHT22;11802;53.160;8.214;2023-04-03T14:04:23;10.10;99.90
23267;DHT22;11802;53.160;8.214;2023-04-03T14:06:49;10.50;99.90
23267;DHT22;11802;53.160;8.214;2023-04-03T14:09:17;10.70;99.90
23267;DHT22;11802;53.160;8.214;2023-04-03T14:11:44;10.80;99.90
23267;DHT22;11802;53.160;8.214;2023-04-03T14:14:21;10.90;99.90
23267;DHT22;11802;53.160;8.214;2023-04-03T14:16:52;10.70;99.90
23267;DHT22;11802;53.160;8.214;2023-04-03T14:19:24;10.70;99.90
23267;DHT22;11802;53.160;8.214;2023-04-03T14:21:50;10.60;99.90
23267;DHT22;11802;53.160;8.214;2023-04-03T14:24:16;10.20;99.90
23267;DHT22;11802;53.160;8.214;2023-04-03T14:26:43;9.90;99.90
23267;DHT22;11802;53.160;8.214;2023-04-03T14:29:10;9.80;99.90
23267;DHT22;11802;53.160;8.214;2023-04-03T14:31:36;9.80;99.90
23267;DHT22;11802;53.160;8.214;2023-04-03T14:34:01;9.80;99.90
23267;DHT22;11802;53.160;8.214;2023-04-03T14:36:28;10.00;99.90
23267;DHT22;11802;53.160;8.214;2023-04-03T14:38:55;10.20;99.90
23267;DHT22;11802;53.160;8.214;2023-04-03T14:41:22;10.60;99.90
23267;DHT22;11802;53.160;8.214;2023-04-03T14:43:49;10.80;99.90
23267;DHT22;11802;53.160;8.214;2023-04-03T14:46:19;10.70;99.90
23267;DHT22;11802;53.160;8.214;2023-04-03T14:48:46;10.40;99.90
23267;DHT22;11802;53.160;8.214;2023-04-03T14:51:13;10.20;99.90
23267;DHT22;11802;53.160;8.214;2023-04-03T14:53:40;9.90;99.90
23267;DHT22;11802;53.160;8.214;2023-04-03T14:56:26;9.80;99.90
23267;DHT22;11802;53.160;8.214;2023-04-03T14:58:58;9.70;99.90
23267;DHT22;11802;53.160;8.214;2023-04-03T15:01:24;9.60;99.90
23267;DHT22;11802;53.160;8.214;2023-04-03T15:03:50;9.60;99.90
23267;DHT22;11802;53.160;8.214;2023-04-03T15:06:16;9.80;99.90
23267;DHT22;11802;53.160;8.214;2023-04-03T15:08:43;10.00;99.90
23267;DHT22;11802;53.160;8.214;2023-04-03T15:11:10;10.00;99.90
23267;DHT22;11802;53.160;8.214;2023-04-03T15:13:36;9.90;99.90
23267;DHT22;11802;53.160;8.214;2023-04-03T15:16:02;9.70;99.90
23267;DHT22;11802;53.160;8.214;2023-04-03T15:18:32;9.70;99.90
23267;DHT22;11802;53.160;8.214;2023-04-03T15:21:01;9.50;99.90
23267;DHT22;11802;53.160;8.214;2023-04-03T15:23:27;9.40;1.00
23267;DHT22;11802;53.160;8.214;2023-04-03T15:25:54;9.30;1.00
23267;DHT22;11802;53.160;8.214;2023-04-03T15:28:35;9.30;1.00
23267;DHT22;11802;53.160;8.214;2023-04-03T15:31:02;9.40;1.00
23267;DHT22;11802;53.160;8.214;2023-04-03T15:33:28;9.30;1.00
23267;DHT22;11802;53.160;8.214;2023-04-03T15:35:54;9.30;1.00
23267;DHT22;11802;53.160;8.214;2023-04-03T15:38:20;9.10;1.00
23267;DHT22;11802;53.160;8.214;2023-04-03T15:40:47;9.00;1.00
23267;DHT22;11802;53.160;8.214;2023-04-03T15:43:13;8.90;1.00
23267;DHT22;11802;53.160;8.214;2023-04-03T15:45:39;8.80;1.00
23267;DHT22;11802;53.160;8.214;2023-04-03T15:48:05;8.90;1.00
23267;DHT22;11802;53.160;8.214;2023-04-03T15:50:32;8.80;1.00
23267;DHT22;11802;53.160;8.214;2023-04-03T15:52:58;8.80;1.00
23267;DHT22;11802;53.160;8.214;2023-04-03T15:55:25;8.80;42.20
23267;DHT22;11802;53.160;8.214;2023-04-03T15:57:52;8.70;94.60
23267;DHT22;11802;53.160;8.214;2023-04-03T16:00:17;8.60;99.90
23267;DHT22;11802;53.160;8.214;2023-04-03T16:02:45;8.60;99.90
23267;DHT22;11802;53.160;8.214;2023-04-03T16:05:12;8.50;99.90
23267;DHT22;11802;53.160;8.214;2023-04-03T16:07:41;8.40;99.90
23267;DHT22;11802;53.160;8.214;2023-04-03T16:10:08;8.50;99.90
23267;DHT22;11802;53.160;8.214;2023-04-03T16:12:36;8.40;1.00
23267;DHT22;11802;53.160;8.214;2023-04-03T16:15:04;8.50;1.00
23267;DHT22;11802;53.160;8.214;2023-04-03T16:17:31;8.50;1.00
23267;DHT22;11802;53.160;8.214;2023-04-03T16:19:57;8.30;1.00
23267;DHT22;11802;53.160;8.214;2023-04-03T16:22:24;8.30;1.00
23267;DHT22;11802;53.160;8.214;2023-04-03T16:24:50;8.20;1.00
23267;DHT22;11802;53.160;8.214;2023-04-03T16:27:16;8.10;1.00
23267;DHT22;11802;53.160;8.214;2023-04-03T16:29:41;8.10;1.00
23267;DHT22;11802;53.160;8.214;2023-04-03T16:32:07;8.10;99.90
23267;DHT22;11802;53.160;8.214;2023-04-03T16:34:33;8.00;99.90
23267;DHT22;11802;53.160;8.214;2023-04-03T16:36:59;8.10;99.90
23267;DHT22;11802;53.160;8.214;2023-04-03T16:39:25;8.20;1.00
23267;DHT22;11802;53.160;8.214;2023-04-03T16:41:51;8.10;1.00
23267;DHT22;11802;53.160;8.214;2023-04-03T16:44:16;8.10;99.90
23267;DHT22;11802;53.160;8.214;2023-04-03T16:46:42;8.00;14.00
23267;DHT22;11802;53.160;8.214;2023-04-03T16:49:08;8.00;99.90
23267;DHT22;11802;53.160;8.214;2023-04-03T16:51:34;7.90;1.00
23267;DHT22;11802;53.160;8.214;2023-04-03T16:54:00;7.90;1.00
23267;DHT22;11802;53.160;8.214;2023-04-03T16:56:26;7.90;1.00
23267;DHT22;11802;53.160;8.214;2023-04-03T16:58:54;7.80;1.00
23267;DHT22;11802;53.160;8.214;2023-04-03T17:01:21;7.80;1.00
23267;DHT22;11802;53.160;8.214;2023-04-03T17:03:48;7.70;1.00
23267;DHT22;11802;53.160;8.214;2023-04-03T17:06:18;7.70;1.00